Time;durP1;ratioP1;P1;durP2;ratioP2;P2;SDS_P1;SDS_P2;PMS_P1;PMS_P2;Temp;Humidity;BMP_temperature;BMP_pressure;BME280_temperature;BME280_humidity;BME280_pressure;Samples;Min_cycle;Max_cycle;Signal;HPM_P1;HPM_P2
2022/09/29 00:01:44;;;;;;;902.27;826.57;;;6.80;99.90;;;;;;5037031;28;20448;-83
2022/09/29 00:04:11;;;;;;;907.83;833.23;;;6.70;99.90;;;;;;5037202;28;20452;-81
2022/09/29 00:06:38;;;;;;;904.37;830.77;;;6.60;99.90;;;;;;5037418;28;20975;-81
2022/09/29 00:09:04;;;;;;;900.83;826.87;;;6.50;99.90;;;;;;5038050;28;20478;-81
2022/09/29 00:11:31;;;;;;;897.33;822.73;;;6.40;99.90;;;;;;5037316;28;20523;-81
2022/09/29 00:13:58;;;;;;;900.27;824.40;;;6.30;99.90;;;;;;5037254;28;20455;-81
2022/09/29 00:16:26;;;;;;;900.83;820.43;;;6.00;99.90;;;;;;5037161;28;20480;-81
2022/09/29 00:18:54;;;;;;;907.80;825.47;;;6.10;99.90;;;;;;5037304;28;20850;-83
2022/09/29 00:21:21;;;;;;;909.43;826.57;;;6.20;99.90;;;;;;5036393;28;20948;-81
2022/09/29 00:23:48;;;;;;;900.83;817.13;;;6.10;99.90;;;;;;5036768;28;20457;-80
2022/09/29 00:26:17;;;;;;;900.03;816.00;;;6.00;99.90;;;;;;5036525;28;20459;-84
2022/09/29 00:28:47;;;;;;;907.67;823.67;;;6.10;99.90;;;;;;5036309;28;20553;-80
2022/09/29 00:31:14;;;;;;;904.80;821.70;;;6.00;99.90;;;;;;5036290;28;20470;-81
2022/09/29 00:33:42;;;;;;;906.50;822.40;;;5.90;99.90;;;;;;5035920;28;20509;-80
2022/09/29 00:36:12;;;;;;;895.40;811.20;;;5.90;99.90;;;;;;5035645;28;20456;-80
2022/09/29 00:38:40;;;;;;;901.37;817.47;;;5.80;99.90;;;;;;5036268;28;20472;-81
2022/09/29 00:41:09;;;;;;;906.53;822.23;;;5.80;99.90;;;;;;5036087;28;20463;-80
2022/09/29 00:43:54;;;;;;;902.93;818.13;;;5.70;99.90;;;;;;5036196;28;20958;-80
2022/09/29 00:46:26;;;;;;;900.50;815.70;;;5.60;99.90;;;;;;5034817;28;20448;-80
2022/09/29 00:48:55;;;;;;;895.53;810.37;;;5.70;99.90;;;;;;5035271;28;20491;-80
2022/09/29 00:51:23;;;;;;;904.27;818.10;;;5.60;99.90;;;;;;5034995;28;20460;-80
2022/09/29 00:53:50;;;;;;;897.13;810.17;;;5.50;99.90;;;;;;5035804;28;20452;-80
2022/09/29 00:56:18;;;;;;;903.73;816.87;;;5.50;99.90;;;;;;5035040;28;20459;-83
2022/09/29 00:58:53;;;;;;;914.03;825.40;;;5.40;99.90;;;;;;5035603;28;20526;-81
2022/09/29 01:01:20;;;;;;;910.07;820.30;;;5.40;99.90;;;;;;5035330;28;20448;-80
2022/09/29 01:03:50;;;;;;;914.77;824.80;;;5.50;99.90;;;;;;5035178;28;20452;-80
2022/09/29 01:06:21;;;;;;;907.33;818.20;;;5.40;99.90;;;;;;5034825;28;20444;-80
2022/09/29 01:08:54;;;;;;;902.53;813.40;;;5.40;99.90;;;;;;5035048;28;20575;-80
2022/09/29 01:11:22;;;;;;;921.47;831.30;;;5.40;99.90;;;;;;5034513;28;20463;-80
2022/09/29 01:13:49;;;;;;;917.80;826.73;;;5.40;99.90;;;;;;5034476;28;20452;-80
2022/09/29 01:16:16;;;;;;;912.47;821.77;;;5.50;99.90;;;;;;5034897;28;20448;-83
2022/09/29 01:18:43;;;;;;;895.43;805.03;;;5.40;99.90;;;;;;5035249;28;20468;-81
2022/09/29 01:21:24;;;;;;;895.00;805.80;;;5.40;99.90;;;;;;5034508;28;20475;-83
2022/09/29 01:24:22;;;;;;;898.10;808.53;;;5.40;99.90;;;;;;5034407;28;20836;-80
2022/09/29 01:27:15;;;;;;;899.23;808.93;;;5.40;99.90;;;;;;5035208;28;20440;-81
2022/09/29 01:30:09;;;;;;;899.40;809.67;;;5.40;99.90;;;;;;5034768;28;20481;-80
2022/09/29 01:32:52;;;;;;;901.33;810.83;;;5.40;99.90;;;;;;5015064;28;20484;-80
2022/09/29 01:35:25;;;;;;;914.80;823.80;;;5.40;99.90;;;;;;5017609;28;20460;-81
2022/09/29 01:38:07;;;;;;;912.90;822.13;;;5.50;99.90;;;;;;5034582;28;20464;-80
2022/09/29 01:40:42;;;;;;;909.90;819.33;;;5.50;99.90;;;;;;5034315;28;20463;-80
2022/09/29 01:43:13;;;;;;;905.80;815.70;;;5.60;99.90;;;;;;5034287;28;20450;-80
2022/09/29 01:45:44;;;;;;;902.37;812.97;;;5.40;99.90;;;;;;5034257;28;20471;-80
2022/09/29 01:48:17;;;;;;;902.30;813.03;;;5.30;99.90;;;;;;5033805;28;20491;-80
2022/09/29 01:50:46;;;;;;;900.60;810.40;;;5.30;99.90;;;;;;5034255;28;20456;-83
2022/09/29 01:53:16;;;;;;;915.10;824.13;;;5.20;99.90;;;;;;5034320;28;20477;-80
2022/09/29 01:55:48;;;;;;;910.63;820.23;;;5.10;99.90;;;;;;5034481;28;20964;-80
2022/09/29 01:58:19;;;;;;;912.27;821.67;;;5.10;99.90;;;;;;5034829;28;20477;-81
2022/09/29 02:00:51;;;;;;;915.40;823.70;;;5.00;99.90;;;;;;5034851;28;20463;-81
2022/09/29 02:03:22;;;;;;;922.20;831.40;;;5.00;99.90;;;;;;5034208;28;20455;-80
2022/09/29 02:05:53;;;;;;;917.33;826.33;;;4.90;99.90;;;;;;5034315;28;20452;-80
2022/09/29 02:08:25;;;;;;;898.90;808.50;;;4.90;99.90;;;;;;5034041;28;20479;-80
2022/09/29 02:10:56;;;;;;;902.67;811.83;;;5.00;99.90;;;;;;5034843;28;20463;-80
2022/09/29 02:13:24;;;;;;;902.33;811.43;;;5.00;99.90;;;;;;5034373;28;20476;-82
2022/09/29 02:15:54;;;;;;;915.70;824.10;;;4.90;99.90;;;;;;5034545;28;20830;-81
2022/09/29 02:18:26;;;;;;;921.70;829.50;;;5.00;99.90;;;;;;5035048;28;20845;-83
2022/09/29 02:20:53;;;;;;;916.97;825.57;;;5.10;99.90;;;;;;5034354;28;20452;-80
2022/09/29 02:23:20;;;;;;;903.43;813.03;;;5.10;99.90;;;;;;5034418;28;20452;-80
2022/09/29 02:25:48;;;;;;;894.47;805.37;;;5.10;99.90;;;;;;5033451;28;20462;-80
2022/09/29 02:28:16;;;;;;;893.73;805.17;;;5.10;99.90;;;;;;5033803;28;20480;-80
2022/09/29 02:30:44;;;;;;;898.80;809.50;;;5.10;99.90;;;;;;5033515;28;20452;-80
2022/09/29 02:33:18;;;;;;;914.93;823.23;;;5.00;99.90;;;;;;5034209;28;20480;-80
2022/09/29 02:35:58;;;;;;;923.07;830.47;;;5.00;99.90;;;;;;5033227;28;20856;-80
2022/09/29 02:38:35;;;;;;;937.20;844.87;;;5.10;99.90;;;;;;5034242;28;20848;-80
2022/09/29 02:41:07;;;;;;;943.10;850.63;;;5.10;99.90;;;;;;5034131;28;20448;-80
2022/09/29 02:44:06;;;;;;;945.03;852.47;;;4.90;99.90;;;;;;5034299;28;20452;-81
2022/09/29 02:46:50;;;;;;;933.20;840.73;;;4.90;99.90;;;;;;5013866;28;20460;-81
2022/09/29 02:49:33;;;;;;;922.17;830.33;;;4.80;99.90;;;;;;5058126;23;20504;-84
2022/09/29 02:52:10;;;;;;;927.23;834.20;;;4.90;99.90;;;;;;5023993;28;20492;-84
2022/09/29 02:54:59;;;;;;;910.23;818.07;;;4.80;99.90;;;;;;5022553;28;20460;-85
2022/09/29 02:57:36;;;;;;;927.07;834.63;;;4.80;99.90;;;;;;5021555;28;20445;-85
2022/09/29 03:00:08;;;;;;;924.60;831.50;;;4.80;99.90;;;;;;5022403;28;20481;-85
2022/09/29 03:02:36;;;;;;;916.13;824.13;;;4.90;99.90;;;;;;5022857;28;20469;-84
2022/09/29 03:05:04;;;;;;;901.87;810.23;;;4.90;99.90;;;;;;5021602;28;20472;-85
2022/09/29 03:07:33;;;;;;;921.13;829.57;;;4.90;99.90;;;;;;5019075;28;20453;-84
2022/09/29 03:10:00;;;;;;;919.73;828.37;;;4.70;99.90;;;;;;5020255;28;20552;-84
2022/09/29 03:12:27;;;;;;;924.70;833.20;;;4.70;99.90;;;;;;5021863;28;20508;-85
2022/09/29 03:18:45;;;;;;;909.57;820.17;;;4.70;99.90;;;;;;5014111;28;20464;-85
2022/09/29 03:21:13;;;;;;;902.40;812.60;;;4.70;99.90;;;;;;5019206;28;20485;-85
2022/09/29 03:23:41;;;;;;;919.20;828.90;;;4.60;99.90;;;;;;5020487;28;20481;-85
2022/09/29 03:26:13;;;;;;;906.23;815.27;;;4.60;99.90;;;;;;5019878;28;20480;-85
2022/09/29 03:28:45;;;;;;;923.10;831.30;;;4.60;99.90;;;;;;5020730;28;20556;-85
2022/09/29 03:31:12;;;;;;;912.50;822.10;;;4.60;99.90;;;;;;5019386;28;20541;-86
2022/09/29 03:33:41;;;;;;;928.67;837.30;;;4.60;99.90;;;;;;5019105;28;20559;-85
2022/09/29 03:36:18;;;;;;;917.30;827.73;;;4.50;99.90;;;;;;5000968;28;20466;-85
2022/09/29 03:38:57;;;;;;;920.83;830.50;;;4.50;99.90;;;;;;5011470;28;20519;-85
2022/09/29 03:41:33;;;;;;;932.80;841.70;;;4.70;99.90;;;;;;5023584;28;20460;-85
2022/09/29 03:44:20;;;;;;;937.57;844.17;;;4.60;99.90;;;;;;5020998;28;20445;-85
2022/09/29 03:56:17;;;;;;;930.50;839.20;;;4.60;99.90;;;;;;5021319;28;21037;-84
2022/09/29 03:58:54;;;;;;;924.00;834.40;;;4.60;99.90;;;;;;5022014;28;20909;-84
2022/09/29 04:04:49;;;;;;;924.77;834.00;;;4.60;99.90;;;;;;5020085;28;20445;-86
2022/09/29 04:07:20;;;;;;;918.10;829.27;;;4.40;99.90;;;;;;5018015;28;20519;-86
2022/09/29 04:10:44;;;;;;;928.23;838.63;;;4.40;99.90;;;;;;5021538;28;20479;-86
2022/09/29 04:13:12;;;;;;;910.23;821.40;;;4.30;99.90;;;;;;4974541;28;20528;-85
2022/09/29 04:15:39;;;;;;;912.93;823.63;;;4.30;99.90;;;;;;5021772;28;20457;-84
2022/09/29 04:18:09;;;;;;;907.37;818.33;;;4.50;99.90;;;;;;5020606;28;20831;-84
2022/09/29 04:20:38;;;;;;;920.50;831.60;;;4.50;99.90;;;;;;5023000;28;20525;-85
2022/09/29 04:23:17;;;;;;;907.00;819.53;;;4.30;99.90;;;;;;5021879;28;20512;-87
2022/09/29 04:26:02;;;;;;;909.77;822.23;;;4.30;99.90;;;;;;5019232;28;20457;-86
2022/09/29 04:28:42;;;;;;;907.17;819.10;;;4.30;99.90;;;;;;5019986;28;20473;-80
2022/09/29 04:31:09;;;;;;;937.37;846.50;;;4.30;99.90;;;;;;5022450;28;20453;-84
2022/09/29 04:33:38;;;;;;;915.17;826.60;;;4.20;99.90;;;;;;5023034;28;20501;-85
2022/09/29 04:36:06;;;;;;;929.70;840.60;;;4.20;99.90;;;;;;5026558;28;20868;-84
2022/09/29 04:38:40;;;;;;;922.70;834.23;;;4.30;99.90;;;;;;5026736;28;20465;-84
2022/09/29 04:41:09;;;;;;;912.93;825.17;;;4.30;99.90;;;;;;5025905;28;20449;-84
2022/09/29 04:43:37;;;;;;;938.83;849.10;;;4.50;99.90;;;;;;5028629;28;20464;-84
2022/09/29 04:46:06;;;;;;;916.13;827.70;;;4.60;99.90;;;;;;5026529;28;20481;-85
2022/09/29 04:48:37;;;;;;;962.03;869.30;;;4.60;99.90;;;;;;5024287;28;20548;-84
2022/09/29 04:51:05;;;;;;;942.27;852.67;;;4.70;99.90;;;;;;5025321;28;20454;-85
2022/09/29 04:53:32;;;;;;;934.23;844.27;;;4.60;99.90;;;;;;5024355;28;20481;-85
2022/09/29 04:55:59;;;;;;;919.20;831.00;;;4.60;99.90;;;;;;5023159;28;20451;-84
2022/09/29 04:58:27;;;;;;;901.13;813.13;;;4.60;99.90;;;;;;5024770;28;20473;-84
2022/09/29 05:01:05;;;;;;;928.23;839.23;;;4.40;99.90;;;;;;5023174;28;20453;-86
2022/09/29 05:03:48;;;;;;;923.90;835.10;;;4.50;99.90;;;;;;5021312;28;20445;-85
2022/09/29 05:06:26;;;;;;;919.43;830.60;;;4.60;99.90;;;;;;5010613;28;20463;-84
2022/09/29 05:08:59;;;;;;;913.20;823.83;;;4.60;99.90;;;;;;5024214;28;20469;-84
2022/09/29 05:11:30;;;;;;;923.50;834.60;;;4.60;99.90;;;;;;5023114;28;20484;-85
2022/09/29 05:13:57;;;;;;;909.90;822.60;;;4.40;99.90;;;;;;5023302;28;20465;-85
2022/09/29 05:16:30;;;;;;;920.33;832.03;;;4.50;99.90;;;;;;5022158;28;20485;-85
2022/09/29 05:19:00;;;;;;;921.00;832.40;;;4.50;99.90;;;;;;5021097;28;20473;-85
2022/09/29 05:21:27;;;;;;;919.70;830.77;;;4.50;99.90;;;;;;5021535;28;20477;-85
2022/09/29 05:23:59;;;;;;;924.00;835.60;;;4.50;99.90;;;;;;5021884;28;20497;-85
2022/09/29 05:26:26;;;;;;;920.53;831.60;;;4.40;99.90;;;;;;5019797;28;20454;-86
2022/09/29 05:28:53;;;;;;;930.90;841.93;;;4.50;99.90;;;;;;5020534;28;20480;-86
2022/09/29 05:31:34;;;;;;;924.77;835.73;;;4.40;99.90;;;;;;5019551;28;20469;-83
2022/09/29 05:34:11;;;;;;;912.40;823.77;;;4.60;99.90;;;;;;5019041;28;20477;-85
2022/09/29 05:36:44;;;;;;;908.00;819.87;;;4.60;99.90;;;;;;5020900;28;20481;-84
2022/09/29 05:39:12;;;;;;;907.40;818.10;;;4.70;99.90;;;;;;5020716;28;20485;-84
2022/09/29 05:41:39;;;;;;;905.47;815.93;;;4.70;99.90;;;;;;5020621;28;20481;-84
2022/09/29 05:44:27;;;;;;;895.30;806.23;;;4.70;99.90;;;;;;5021830;28;20465;-84
2022/09/29 05:46:55;;;;;;;893.20;804.90;;;4.80;99.90;;;;;;5023336;28;20541;-84
2022/09/29 05:49:22;;;;;;;914.83;826.10;;;4.90;99.90;;;;;;5020225;28;21035;-84
2022/09/29 05:51:49;;;;;;;918.10;829.87;;;5.00;99.90;;;;;;5022049;28;20473;-83
2022/09/29 05:54:16;;;;;;;911.40;824.20;;;5.10;99.90;;;;;;5024640;28;20477;-84
2022/09/29 05:56:45;;;;;;;892.83;805.03;;;5.20;99.90;;;;;;5021229;28;20457;-84
2022/09/29 05:59:12;;;;;;;890.97;803.70;;;5.20;99.90;;;;;;5024877;28;20470;-83
2022/09/29 06:01:42;;;;;;;894.57;805.80;;;5.30;99.90;;;;;;5023128;28;20477;-83
2022/09/29 06:04:11;;;;;;;903.57;815.87;;;5.30;99.90;;;;;;5023132;28;20460;-83
2022/09/29 06:06:39;;;;;;;912.67;823.97;;;5.30;99.90;;;;;;5007087;28;20456;-83
2022/09/29 06:09:06;;;;;;;912.90;823.60;;;5.50;99.90;;;;;;5026616;28;20489;-83
2022/09/29 06:11:33;;;;;;;899.17;810.87;;;5.60;99.90;;;;;;5025381;28;20939;-84
2022/09/29 06:14:02;;;;;;;895.37;807.47;;;5.60;99.90;;;;;;5024830;28;20474;-85
2022/09/29 06:16:31;;;;;;;890.00;802.73;;;5.60;99.90;;;;;;5024370;28;20441;-84
2022/09/29 06:18:59;;;;;;;887.43;800.37;;;5.60;99.90;;;;;;5024747;28;20473;-84
2022/09/29 06:21:30;;;;;;;903.13;814.43;;;5.70;99.90;;;;;;5022115;28;20445;-84
2022/09/29 06:23:58;;;;;;;897.27;809.47;;;5.80;99.90;;;;;;5024117;28;20451;-85
2022/09/29 06:26:27;;;;;;;887.40;799.00;;;5.90;99.90;;;;;;5022539;28;20457;-85
2022/09/29 06:28:55;;;;;;;895.10;806.43;;;6.00;99.90;;;;;;5021733;28;20564;-84
2022/09/29 06:31:23;;;;;;;899.57;811.07;;;6.10;99.90;;;;;;5023852;28;20950;-84
2022/09/29 06:33:51;;;;;;;902.67;813.97;;;6.30;99.90;;;;;;5024976;28;20462;-85
2022/09/29 06:39:08;;;;;;;891.90;803.90;;;6.30;99.90;;;;;;5024103;28;20560;-84
2022/09/29 06:41:35;;;;;;;894.90;806.63;;;6.50;99.90;;;;;;5024957;28;20953;-84
2022/09/29 06:44:02;;;;;;;893.63;805.53;;;6.60;99.90;;;;;;5023805;28;20452;-85
2022/09/29 06:46:28;;;;;;;889.80;801.70;;;6.70;99.90;;;;;;5020867;28;20453;-83
2022/09/29 06:48:56;;;;;;;894.30;805.27;;;6.80;99.90;;;;;;5020186;28;20498;-85
2022/09/29 06:51:23;;;;;;;904.40;814.03;;;6.90;99.90;;;;;;5023643;28;20460;-82
2022/09/29 06:53:51;;;;;;;897.27;808.10;;;7.00;99.90;;;;;;5022057;28;20479;-84
2022/09/29 06:56:19;;;;;;;897.17;808.00;;;7.00;99.90;;;;;;5023247;28;21017;-84
2022/09/29 06:58:46;;;;;;;892.50;802.93;;;7.10;99.90;;;;;;5021554;28;20473;-82
2022/09/29 07:01:13;;;;;;;922.50;832.90;;;7.20;99.90;;;;;;5021727;28;21052;-85
2022/09/29 07:03:40;;;;;;;906.27;817.60;;;7.20;99.90;;;;;;5022878;28;20446;-83
2022/09/29 07:06:09;;;;;;;905.07;816.73;;;7.40;99.90;;;;;;5023967;28;20457;-84
2022/09/29 07:08:37;;;;;;;883.23;794.40;;;7.50;99.90;;;;;;5024358;28;20472;-84
2022/09/29 07:11:05;;;;;;;882.20;793.03;;;7.50;99.90;;;;;;5024855;28;20497;-85
2022/09/29 07:13:34;;;;;;;893.40;803.87;;;7.50;99.90;;;;;;5026967;28;20477;-85
2022/09/29 07:16:06;;;;;;;887.77;798.57;;;7.60;99.90;;;;;;5027835;28;20453;-85
2022/09/29 07:18:36;;;;;;;889.57;800.70;;;7.70;99.90;;;;;;5027834;28;20508;-83
2022/09/29 07:21:03;;;;;;;884.33;795.77;;;7.70;99.90;;;;;;5027607;28;20524;-85
2022/09/29 07:23:30;;;;;;;894.87;805.03;;;7.80;99.90;;;;;;5028434;28;20452;-85
2022/09/29 07:25:57;;;;;;;892.87;803.80;;;7.80;99.90;;;;;;5027299;28;20464;-85
2022/09/29 07:28:24;;;;;;;883.93;794.80;;;7.90;99.90;;;;;;5025026;28;20857;-84
2022/09/29 07:31:00;;;;;;;880.17;791.50;;;8.00;99.90;;;;;;5025133;28;20460;-84
2022/09/29 07:33:27;;;;;;;879.97;791.67;;;8.10;99.90;;;;;;5027802;28;20453;-84
2022/09/29 07:35:54;;;;;;;884.50;797.30;;;8.10;99.90;;;;;;5023952;28;20460;-85
2022/09/29 07:38:21;;;;;;;873.87;787.57;;;8.20;99.90;;;;;;5026412;28;20480;-85
2022/09/29 07:40:48;;;;;;;882.50;796.40;;;8.40;99.90;;;;;;5024417;28;20776;-85
2022/09/29 07:43:15;;;;;;;868.43;782.33;;;8.40;99.90;;;;;;5023356;28;20453;-85
2022/09/29 07:45:47;;;;;;;882.53;797.30;;;8.50;99.90;;;;;;5025848;28;20956;-85
2022/09/29 07:48:16;;;;;;;875.63;791.10;;;8.60;99.90;;;;;;5025198;28;20468;-84
2022/09/29 07:50:43;;;;;;;869.10;785.70;;;8.60;99.90;;;;;;5023163;28;20796;-84
2022/09/29 07:53:11;;;;;;;869.07;786.07;;;8.80;99.90;;;;;;5025447;28;20452;-84
2022/09/29 07:55:38;;;;;;;872.30;791.17;;;8.90;99.90;;;;;;5021789;28;20885;-84
2022/09/29 07:58:06;;;;;;;866.60;788.60;;;9.00;99.90;;;;;;5022238;28;20460;-83
2022/09/29 08:00:32;;;;;;;865.00;787.63;;;9.10;99.90;;;;;;5018925;28;20453;-83
2022/09/29 08:03:02;;;;;;;870.80;794.43;;;9.10;99.90;;;;;;5018714;28;20973;-84
2022/09/29 08:05:32;;;;;;;841.37;772.23;;;9.30;99.90;;;;;;5018570;28;20455;-85
2022/09/29 08:07:59;;;;;;;822.87;759.53;;;9.40;99.90;;;;;;5023036;28;20460;-85
2022/09/29 08:10:26;;;;;;;811.30;753.17;;;9.50;99.90;;;;;;5021881;28;20520;-85
2022/09/29 08:12:53;;;;;;;801.57;745.37;;;9.50;99.90;;;;;;5022514;28;20460;-84
2022/09/29 08:15:20;;;;;;;726.63;679.93;;;9.60;99.90;;;;;;5025104;28;20481;-85
2022/09/29 08:17:47;;;;;;;667.30;627.07;;;9.70;99.90;;;;;;5025658;28;20446;-84
2022/09/29 08:20:14;;;;;;;658.73;619.93;;;9.90;99.90;;;;;;5026119;28;20481;-85
2022/09/29 08:22:42;;;;;;;510.70;485.47;;;10.10;99.90;;;;;;5025462;28;20460;-85
2022/09/29 08:25:09;;;;;;;415.83;397.37;;;10.30;99.90;;;;;;5026494;28;20449;-85
2022/09/29 08:27:36;;;;;;;250.03;240.33;;;10.40;99.90;;;;;;5026384;28;20453;-86
2022/09/29 08:30:02;;;;;;;78.93;75.13;;;10.80;99.90;;;;;;5025477;28;20472;-85
2022/09/29 08:32:29;;;;;;;43.57;40.87;;;11.00;99.90;;;;;;5025944;28;20450;-85
2022/09/29 08:34:56;;;;;;;19.33;17.47;;;11.40;99.90;;;;;;5023506;28;20488;-85
2022/09/29 08:37:22;;;;;;;11.40;9.27;;;11.60;99.90;;;;;;5025323;28;20460;-86
2022/09/29 08:39:50;;;;;;;11.80;10.60;;;12.00;99.90;;;;;;5025288;28;20513;-85
2022/09/29 08:42:26;;;;;;;13.50;8.80;;;12.40;99.90;;;;;;5024619;28;20456;-85
2022/09/29 08:44:59;;;;;;;10.23;8.03;;;12.70;99.90;;;;;;5024577;28;20946;-85
2022/09/29 08:47:29;;;;;;;13.83;8.23;;;13.10;99.90;;;;;;5024309;28;20500;-86
2022/09/29 08:49:58;;;;;;;9.00;6.77;;;13.40;99.90;;;;;;5033114;23;20492;-82
2022/09/29 08:52:29;;;;;;;9.83;6.57;;;13.80;99.90;;;;;;5002138;28;20454;-82
2022/09/29 08:55:08;;;;;;;11.67;6.27;;;14.00;99.30;;;;;;5001349;28;20477;-83
2022/09/29 08:57:35;;;;;;;8.40;6.33;;;14.30;96.20;;;;;;5002314;28;20461;-83
2022/09/29 09:00:03;;;;;;;9.10;7.03;;;14.60;95.50;;;;;;5017415;28;20503;-83
2022/09/29 09:03:10;;;;;;;9.80;6.37;;;14.50;92.80;;;;;;5025605;28;20463;-84
2022/09/29 09:06:07;;;;;;;9.13;6.10;;;15.00;93.90;;;;;;5007903;28;20457;-83
2022/09/29 09:09:00;;;;;;;11.73;5.73;;;15.60;90.20;;;;;;5025421;28;20464;-86
2022/09/29 09:11:41;;;;;;;9.50;6.20;;;16.00;88.20;;;;;;5023736;28;20452;-84
2022/09/29 09:14:22;;;;;;;9.60;6.10;;;16.10;84.50;;;;;;5023500;28;20470;-84
2022/09/29 09:16:56;;;;;;;10.20;6.20;;;16.40;85.70;;;;;;5024206;28;20474;-83
2022/09/29 09:19:42;;;;;;;12.57;6.60;;;16.60;78.80;;;;;;5023881;28;20479;-83
2022/09/29 09:22:22;;;;;;;9.80;6.50;;;16.60;79.70;;;;;;5024041;28;20448;-84
2022/09/29 09:24:57;;;;;;;13.23;8.53;;;17.00;78.80;;;;;;5023576;28;20478;-84
2022/09/29 09:27:31;;;;;;;10.63;6.83;;;17.40;77.80;;;;;;5023114;28;20447;-84
2022/09/29 09:30:05;;;;;;;18.03;13.13;;;18.10;72.50;;;;;;5021847;28;20482;-83
2022/09/29 09:32:37;;;;;;;14.93;7.93;;;18.50;70.90;;;;;;5021693;28;20442;-84
2022/09/29 09:35:20;;;;;;;10.33;6.77;;;18.70;67.50;;;;;;5019886;28;20938;-84
2022/09/29 09:37:48;;;;;;;8.83;5.70;;;19.10;62.40;;;;;;5020912;28;20478;-84
2022/09/29 09:40:20;;;;;;;18.43;6.77;;;18.80;62.30;;;;;;5021258;28;20476;-85
2022/09/29 09:42:52;;;;;;;11.80;7.27;;;18.40;60.40;;;;;;5019593;28;20516;-84
2022/09/29 09:45:27;;;;;;;17.73;8.60;;;19.00;62.10;;;;;;5019044;28;20558;-84
2022/09/29 09:47:59;;;;;;;17.73;8.60;;;19.10;62.30;;;;;;5019171;28;20470;-85
2022/09/29 09:50:27;;;;;;;14.77;8.87;;;19.30;57.80;;;;;;5018108;28;20486;-84
2022/09/29 09:52:57;;;;;;;26.63;10.83;;;19.60;58.30;;;;;;5018181;28;20464;-84
2022/09/29 09:55:42;;;;;;;17.53;8.37;;;19.70;56.00;;;;;;5018943;28;20446;-85
2022/09/29 09:58:39;;;;;;;18.10;7.30;;;19.90;56.40;;;;;;5015471;28;20603;-85
2022/09/29 10:01:10;;;;;;;12.00;7.23;;;20.20;52.30;;;;;;5016772;28;20437;-84
2022/09/29 10:03:38;;;;;;;14.67;7.80;;;20.10;51.00;;;;;;5016331;28;20500;-84
2022/09/29 10:06:18;;;;;;;12.53;7.20;;;20.60;48.60;;;;;;5015375;28;21033;-85
2022/09/29 10:08:45;;;;;;;10.87;6.10;;;20.90;45.50;;;;;;5015955;28;20507;-85
2022/09/29 10:11:24;;;;;;;13.70;7.93;;;21.30;36.60;;;;;;5015197;28;20451;-85
2022/09/29 10:14:03;;;;;;;10.50;7.57;;;21.90;41.40;;;;;;5016119;28;20509;-84
2022/09/29 10:16:40;;;;;;;15.20;7.73;;;22.50;36.80;;;;;;5014550;28;20531;-83
2022/09/29 10:19:07;;;;;;;11.10;6.90;;;22.60;36.80;;;;;;5013997;28;20883;-83
2022/09/29 10:21:39;;;;;;;11.50;6.63;;;22.50;37.70;;;;;;5014715;28;20547;-83
2022/09/29 10:24:30;;;;;;;11.37;6.70;;;22.70;37.80;;;;;;5013780;28;20540;-83
2022/09/29 10:27:01;;;;;;;15.33;7.70;;;22.70;30.70;;;;;;5003617;28;20461;-83
2022/09/29 10:29:36;;;;;;;11.00;6.43;;;22.70;31.00;;;;;;5014307;28;20507;-83
2022/09/29 10:32:09;;;;;;;11.43;6.70;;;22.90;27.30;;;;;;5014475;28;20449;-83
2022/09/29 10:34:38;;;;;;;12.63;6.60;;;22.80;28.10;;;;;;5014334;28;20798;-83
2022/09/29 10:37:27;;;;;;;11.90;7.17;;;22.70;29.30;;;;;;5014198;28;20445;-83
2022/09/29 10:40:13;;;;;;;12.27;8.20;;;23.00;30.40;;;;;;5015004;28;20919;-84
2022/09/29 10:42:42;;;;;;;11.80;8.23;;;22.60;28.90;;;;;;5018771;28;20450;-83
2022/09/29 10:45:17;;;;;;;9.33;5.57;;;22.20;31.30;;;;;;5013913;28;20477;-86
2022/09/29 10:47:50;;;;;;;10.00;5.90;;;21.70;28.20;;;;;;5015889;28;20452;-83
2022/09/29 10:50:20;;;;;;;10.43;5.83;;;21.60;26.30;;;;;;5019051;28;20935;-83
2022/09/29 10:52:51;;;;;;;10.87;5.90;;;21.30;24.90;;;;;;5018824;28;20828;-85
2022/09/29 10:55:30;;;;;;;10.23;4.70;;;20.40;28.50;;;;;;5020600;28;20443;-82
2022/09/29 10:58:24;;;;;;;9.37;5.40;;;20.10;27.10;;;;;;5021544;28;20451;-84
2022/09/29 11:01:06;;;;;;;13.10;6.80;;;19.30;31.40;;;;;;5016638;28;20489;-82
2022/09/29 11:03:36;;;;;;;11.80;7.10;;;18.30;33.70;;;;;;5005957;28;20452;-82
2022/09/29 11:06:05;;;;;;;16.70;8.10;;;17.80;42.40;;;;;;5004884;28;20481;-82
2022/09/29 11:08:32;;;;;;;11.53;7.10;;;17.50;50.00;;;;;;5006282;28;20493;-83
2022/09/29 11:11:08;;;;;;;11.77;7.23;;;16.80;44.20;;;;;;5006128;28;20454;-82
2022/09/29 11:13:38;;;;;;;12.73;7.50;;;16.50;50.00;;;;;;5005147;28;20455;-85
2022/09/29 11:16:15;;;;;;;10.40;7.27;;;16.10;56.70;;;;;;5005930;28;20454;-83
2022/09/29 11:18:44;;;;;;;14.70;9.43;;;15.80;56.30;;;;;;5006499;28;20457;-82
2022/09/29 11:21:39;;;;;;;12.17;7.73;;;15.70;56.20;;;;;;5007259;28;20489;-87
2022/09/29 11:24:14;;;;;;;12.17;7.60;;;15.60;61.60;;;;;;5006097;28;20454;-84
2022/09/29 11:26:47;;;;;;;13.00;8.00;;;15.50;59.50;;;;;;5006161;28;20568;-85
2022/09/29 11:29:28;;;;;;;11.43;6.80;;;15.90;53.30;;;;;;5004937;28;20854;-83
2022/09/29 11:32:13;;;;;;;11.87;6.60;;;15.90;52.70;;;;;;5005830;28;20461;-87
2022/09/29 11:35:18;;;;;;;10.10;6.40;;;15.90;53.30;;;;;;5006069;28;20464;-84
2022/09/29 11:38:10;;;;;;;14.70;6.10;;;15.80;53.00;;;;;;5006506;28;20451;-84
2022/09/29 11:40:48;;;;;;;12.10;5.70;;;15.60;55.30;;;;;;5006335;28;20471;-84
2022/09/29 11:43:36;;;;;;;10.40;6.27;;;15.40;55.00;;;;;;5006866;28;20481;-84
2022/09/29 11:46:25;;;;;;;14.23;5.53;;;15.30;57.50;;;;;;5006908;28;20482;-84
2022/09/29 11:49:22;;;;;;;11.90;6.27;;;15.00;56.90;;;;;;5003584;28;20480;-85
2022/09/29 11:52:04;;;;;;;11.50;6.20;;;14.80;54.90;;;;;;4974598;28;20454;-84
2022/09/29 11:54:47;;;;;;;14.30;6.67;;;14.90;59.50;;;;;;5005210;28;20452;-85
2022/09/29 11:57:19;;;;;;;15.17;5.93;;;15.00;58.20;;;;;;5006409;28;20432;-84
2022/09/29 12:00:05;;;;;;;10.90;5.80;;;15.10;58.80;;;;;;5005209;28;20473;-84
2022/09/29 12:03:04;;;;;;;10.73;5.60;;;15.10;58.30;;;;;;5005801;28;20449;-86
2022/09/29 12:05:43;;;;;;;11.37;4.17;;;15.10;57.30;;;;;;5005456;28;20486;-85
2022/09/29 12:08:21;;;;;;;8.47;3.40;;;15.10;54.10;;;;;;5007365;28;20984;-84
2022/09/29 12:11:06;;;;;;;5.50;2.63;;;15.20;48.90;;;;;;5003754;28;20474;-88
2022/09/29 12:13:48;;;;;;;7.50;2.30;;;15.20;47.50;;;;;;5004758;28;20448;-85
2022/09/29 12:16:18;;;;;;;10.50;3.23;;;15.20;45.50;;;;;;5005298;28;20452;-85
2022/09/29 12:18:49;;;;;;;7.83;2.70;;;15.30;48.80;;;;;;5004360;28;20452;-84
2022/09/29 12:21:23;;;;;;;5.93;2.40;;;15.40;45.70;;;;;;5003692;28;20449;-84
2022/09/29 12:23:50;;;;;;;11.70;3.60;;;15.60;46.70;;;;;;4999660;28;20462;-86
2022/09/29 12:26:35;;;;;;;10.10;3.70;;;15.70;47.00;;;;;;4997298;28;20526;-85
2022/09/29 12:29:07;;;;;;;7.90;3.13;;;15.60;49.10;;;;;;4997888;28;20562;-85
2022/09/29 12:31:45;;;;;;;7.67;3.90;;;15.60;48.20;;;;;;4998207;28;20451;-83
2022/09/29 12:34:17;;;;;;;7.57;2.83;;;15.70;45.60;;;;;;4997152;28;20478;-84
2022/09/29 12:36:52;;;;;;;6.37;2.53;;;15.80;43.60;;;;;;4997847;28;20452;-85
2022/09/29 12:39:39;;;;;;;5.43;2.50;;;15.80;43.50;;;;;;4998359;28;20989;-85
2022/09/29 12:42:36;;;;;;;6.70;2.83;;;15.90;44.10;;;;;;4996484;28;20484;-84
2022/09/29 12:45:08;;;;;;;7.17;2.80;;;15.90;40.50;;;;;;4964009;28;20466;-86
2022/09/29 12:47:47;;;;;;;10.03;4.87;;;16.10;45.90;;;;;;4996820;28;20542;-85
2022/09/29 12:50:19;;;;;;;8.33;4.43;;;16.30;45.40;;;;;;4996468;28;20855;-85
2022/09/29 12:52:54;;;;;;;11.60;5.40;;;16.20;42.70;;;;;;4996424;28;20969;-85
2022/09/29 12:55:39;;;;;;;9.17;4.20;;;16.40;44.90;;;;;;4996616;28;20454;-85
2022/09/29 12:58:14;;;;;;;14.63;6.50;;;16.50;45.00;;;;;;4996088;28;20988;-85
2022/09/29 13:00:45;;;;;;;10.13;5.17;;;16.50;42.40;;;;;;4996269;28;21191;-85
2022/09/29 13:03:43;;;;;;;11.50;5.50;;;16.60;42.00;;;;;;4996689;28;20464;-85
2022/09/29 13:06:30;;;;;;;14.90;7.67;;;16.60;43.50;;;;;;4996991;28;20468;-85
2022/09/29 13:09:13;;;;;;;12.60;7.87;;;16.40;44.10;;;;;;4996239;28;20490;-85
2022/09/29 13:11:54;;;;;;;12.77;7.50;;;16.30;44.10;;;;;;4995880;28;20542;-85
2022/09/29 13:14:38;;;;;;;11.90;6.90;;;16.20;44.40;;;;;;4996406;28;20453;-84
2022/09/29 13:17:35;;;;;;;9.40;4.77;;;16.00;46.00;;;;;;4996183;28;20547;-85